Time;durP1;ratioP1;P1;durP2;ratioP2;P2;SDS_P1;SDS_P2;PMS_P1;PMS_P2;Temp;Humidity;BMP_temperature;BMP_pressure;BME280_temperature;BME280_humidity;BME280_pressure;Samples;Min_cycle;Max_cycle;Signal;HPM_P1;HPM_P2
2023/12/05 00:01:34;;;;;;;74.38;47.25;;;;;;;0.26;100.00;95087.56;5020202;28;20025;-68
2023/12/05 00:03:59;;;;;;;81.30;48.72;;;;;;;0.22;100.00;95089.50;5017455;28;20018;-68
2023/12/05 00:06:25;;;;;;;94.10;49.80;;;;;;;0.21;100.00;95092.16;5019510;28;20021;-68
2023/12/05 00:08:50;;;;;;;78.03;44.63;;;;;;;0.18;100.00;95090.63;5019661;28;20045;-68
2023/12/05 00:11:16;;;;;;;88.03;45.65;;;;;;;0.17;100.00;95090.69;5025307;28;20025;-67
2023/12/05 00:13:42;;;;;;;73.03;41.67;;;;;;;0.16;100.00;95086.44;5024365;28;20022;-68
2023/12/05 00:16:08;;;;;;;85.75;41.13;;;;;;;0.17;100.00;95090.69;5022867;28;20029;-68
2023/12/05 00:18:33;;;;;;;64.80;37.45;;;;;;;0.14;100.00;95089.13;5016917;28;20482;-68
2023/12/05 00:20:59;;;;;;;69.38;39.85;;;;;;;0.14;100.00;95097.72;5025871;28;20033;-67
2023/12/05 00:23:25;;;;;;;80.07;38.63;;;;;;;0.17;100.00;95106.22;5028085;28;20094;-68
2023/12/05 00:25:50;;;;;;;82.30;37.10;;;;;;;0.19;100.00;95109.56;5025217;28;20025;-68
2023/12/05 00:28:15;;;;;;;59.60;34.75;;;;;;;0.18;100.00;95113.91;5022160;28;20363;-68
2023/12/05 00:30:41;;;;;;;54.75;36.72;;;;;;;0.18;100.00;95113.91;5023293;28;20089;-68
2023/12/05 00:33:06;;;;;;;50.60;35.58;;;;;;;0.18;100.00;95113.06;5022802;28;20029;-68
2023/12/05 00:35:32;;;;;;;51.33;35.00;;;;;;;0.18;100.00;95116.50;5019960;28;20029;-67
2023/12/05 00:37:58;;;;;;;47.65;33.17;;;;;;;0.16;100.00;95102.81;5026077;28;20115;-68
2023/12/05 00:40:29;;;;;;;51.85;33.92;;;;;;;0.14;100.00;95109.84;5020440;28;20034;-67
2023/12/05 00:42:57;;;;;;;52.55;33.53;;;;;;;0.08;100.00;95107.59;5029281;28;20026;-68
2023/12/05 00:45:22;;;;;;;44.15;31.13;;;;;;;0.10;100.00;95103.16;5017328;28;20025;-67
2023/12/05 00:47:49;;;;;;;52.15;33.50;;;;;;;0.11;100.00;95105.69;5026876;28;20100;-68
2023/12/05 00:50:15;;;;;;;49.10;31.88;;;;;;;0.17;100.00;95111.41;5019734;28;20041;-68
2023/12/05 00:52:40;;;;;;;46.65;32.78;;;;;;;0.13;100.00;95100.41;5023994;28;20049;-68
2023/12/05 00:55:06;;;;;;;43.63;30.83;;;;;;;0.13;100.00;95090.06;5028870;28;20025;-68
2023/12/05 00:57:31;;;;;;;37.13;27.58;;;;;;;0.17;100.00;95093.28;5031984;28;20033;-68
2023/12/05 00:59:56;;;;;;;35.22;25.65;;;;;;;0.14;100.00;95096.91;5023256;28;20022;-68
2023/12/05 01:02:23;;;;;;;37.72;28.40;;;;;;;0.18;100.00;95103.56;5019533;28;20029;-68
2023/12/05 01:04:48;;;;;;;54.13;37.85;;;;;;;0.18;100.00;95108.72;5019068;28;20620;-68
2023/12/05 01:07:14;;;;;;;64.57;43.95;;;;;;;0.36;100.00;95087.84;5024121;28;20033;-68
2023/12/05 01:09:39;;;;;;;68.10;46.03;;;;;;;0.36;100.00;95095.59;5022650;28;20483;-67
2023/12/05 01:12:06;;;;;;;61.70;41.83;;;;;;;0.25;100.00;95097.06;5021388;28;20383;-69
2023/12/05 01:14:31;;;;;;;51.28;35.75;;;;;;;0.23;100.00;95085.16;5014194;28;20026;-68
2023/12/05 01:16:56;;;;;;;89.43;56.92;;;;;;;0.24;100.00;95092.00;5025650;28;20494;-68
2023/12/05 01:19:22;;;;;;;54.80;42.38;;;;;;;0.24;100.00;95092.00;5018144;28;20018;-68
2023/12/05 01:21:47;;;;;;;46.20;34.55;;;;;;;0.27;100.00;95091.81;5025078;28;20021;-68
2023/12/05 01:24:12;;;;;;;54.80;37.13;;;;;;;0.27;100.00;95092.63;5025370;28;20049;-68
2023/12/05 01:26:38;;;;;;;58.80;36.05;;;;;;;0.30;100.00;95095.94;5029913;28;20104;-68
2023/12/05 01:29:04;;;;;;;56.42;35.80;;;;;;;0.26;100.00;95106.50;5023367;28;20084;-68
2023/12/05 01:31:30;;;;;;;43.17;32.78;;;;;;;0.26;100.00;95100.50;5020851;28;20108;-67
2023/12/05 01:33:56;;;;;;;50.03;34.13;;;;;;;0.24;100.00;95105.75;5017442;28;20053;-67
2023/12/05 01:36:22;;;;;;;43.38;30.23;;;;;;;0.23;100.00;95098.94;5019179;28;20041;-68
2023/12/05 01:38:48;;;;;;;43.15;30.25;;;;;;;0.25;100.00;95099.66;5015059;28;20137;-67
2023/12/05 01:41:14;;;;;;;42.20;30.10;;;;;;;0.36;100.00;95105.97;5018548;28;20478;-67
2023/12/05 01:43:39;;;;;;;39.85;29.75;;;;;;;0.35;100.00;95099.13;5022053;28;20069;-68
2023/12/05 01:46:05;;;;;;;39.80;29.80;;;;;;;0.30;100.00;95095.94;5025371;28;20026;-67
2023/12/05 01:48:33;;;;;;;34.17;25.95;;;;;;;0.30;100.00;95096.78;5022003;28;20025;-67
2023/12/05 01:51:01;;;;;;;31.67;23.80;;;;;;;0.30;100.00;95094.22;5025061;28;20028;-68
2023/12/05 01:53:28;;;;;;;47.38;36.60;;;;;;;0.29;100.00;95089.97;5037326;28;20057;-67
2023/12/05 01:55:54;;;;;;;26.08;21.10;;;;;;;0.36;100.00;95085.25;5024710;28;20475;-67
2023/12/05 01:58:20;;;;;;;30.17;21.92;;;;;;;0.39;100.00;95082.47;5022696;28;20375;-68
2023/12/05 02:00:45;;;;;;;24.70;19.45;;;;;;;0.39;100.00;95079.88;5023359;28;20081;-68
2023/12/05 02:03:12;;;;;;;26.38;18.58;;;;;;;0.56;100.00;95071.88;5018899;28;20030;-68
2023/12/05 02:05:37;;;;;;;26.52;21.30;;;;;;;0.49;100.00;95068.00;5037976;28;20037;-68
2023/12/05 02:08:03;;;;;;;29.88;25.60;;;;;;;0.41;100.00;95063.28;5022162;28;20084;-68
2023/12/05 02:10:28;;;;;;;38.20;31.42;;;;;;;0.46;100.00;95078.56;5032460;28;20029;-68
2023/12/05 02:12:54;;;;;;;33.78;29.02;;;;;;;0.47;100.00;95072.44;5027291;28;20125;-68
2023/12/05 02:15:19;;;;;;;30.38;25.80;;;;;;;0.44;100.00;95070.03;5024961;28;20022;-68
2023/12/05 02:18:18;;;;;;;23.25;20.77;;;;;;;0.42;100.00;95059.78;5026971;28;20060;-68
2023/12/05 02:20:55;;;;;;;29.83;23.98;;;;;;;0.46;100.00;95065.59;5023113;28;20486;-68
2023/12/05 02:23:54;;;;;;;28.33;23.65;;;;;;;0.46;100.00;95064.78;5029958;28;20037;-68
2023/12/05 02:26:23;;;;;;;24.58;19.00;;;;;;;0.41;100.00;95067.66;5020458;28;20025;-68
2023/12/05 02:28:50;;;;;;;22.33;19.17;;;;;;;0.41;100.00;95068.47;5033335;28;20043;-68
2023/12/05 02:31:15;;;;;;;19.40;17.38;;;;;;;0.52;100.00;95070.38;5021235;28;20498;-68
2023/12/05 02:33:41;;;;;;;21.65;17.27;;;;;;;0.45;100.00;95069.13;5023682;28;20105;-68
2023/12/05 02:36:20;;;;;;;20.17;17.92;;;;;;;0.38;100.00;95057.50;5024923;28;20026;-68
2023/12/05 02:39:17;;;;;;;25.02;18.60;;;;;;;0.37;100.00;95072.19;5031891;28;20025;-68
2023/12/05 02:41:45;;;;;;;40.55;25.95;;;;;;;0.56;100.00;95065.84;5023219;28;20669;-68
2023/12/05 02:44:16;;;;;;;32.78;24.52;;;;;;;0.60;100.00;95066.50;5027391;28;20056;-69
2023/12/05 02:46:43;;;;;;;28.17;22.27;;;;;;;0.48;100.00;95065.53;5023257;28;20025;-68
2023/12/05 02:49:10;;;;;;;27.27;20.83;;;;;;;0.47;100.00;95056.09;5028471;28;20018;-68
2023/12/05 02:51:36;;;;;;;24.30;14.70;;;;;;;0.53;100.00;95069.47;5023397;28;20558;-68
2023/12/05 02:54:06;;;;;;;22.95;17.63;;;;;;;0.73;100.00;95059.59;5023494;28;20076;-68
2023/12/05 02:56:31;;;;;;;36.92;20.60;;;;;;;0.69;100.00;95074.53;5024557;28;20033;-68
2023/12/05 02:58:57;;;;;;;40.58;21.08;;;;;;;0.59;100.00;95076.03;5018978;28;20025;-68
2023/12/05 03:01:23;;;;;;;65.65;22.80;;;;;;;0.61;100.00;95068.16;5022849;28;20103;-68
2023/12/05 03:03:49;;;;;;;54.80;23.77;;;;;;;0.61;100.00;95060.41;5027335;28;20025;-68
2023/12/05 03:06:14;;;;;;;63.05;25.75;;;;;;;0.52;100.00;95067.81;5020507;28;20552;-68
2023/12/05 03:08:40;;;;;;;64.65;25.40;;;;;;;0.52;100.00;95054.84;5043823;28;20084;-68
2023/12/05 03:11:05;;;;;;;77.72;22.50;;;;;;;0.48;100.00;95055.97;5027963;28;20021;-68
2023/12/05 03:13:30;;;;;;;255.27;26.17;;;;;;;0.46;100.00;95047.47;5026947;28;20025;-68
2023/12/05 03:15:56;;;;;;;34.97;24.73;;;;;;;0.43;100.00;95042.50;5029148;28;20063;-68
2023/12/05 03:18:21;;;;;;;47.20;24.38;;;;;;;0.42;100.00;95046.00;5021820;28;20030;-68
2023/12/05 03:20:47;;;;;;;32.78;23.45;;;;;;;0.40;100.00;95040.09;5027392;28;20029;-68
2023/12/05 03:23:16;;;;;;;28.42;22.00;;;;;;;0.41;100.00;95036.56;5025881;28;20164;-68
2023/12/05 03:25:41;;;;;;;31.52;23.70;;;;;;;0.37;100.00;95037.69;5033956;28;20390;-68
2023/12/05 03:28:07;;;;;;;24.25;19.85;;;;;;;0.41;100.00;95036.56;5019867;28;20109;-68
2023/12/05 03:30:32;;;;;;;24.77;20.63;;;;;;;0.41;100.00;95047.75;5025410;28;20827;-68
2023/12/05 03:32:57;;;;;;;24.08;20.10;;;;;;;0.37;100.00;95040.28;5030817;28;20026;-68
2023/12/05 03:35:23;;;;;;;28.33;22.13;;;;;;;0.42;100.00;95053.78;5029495;28;20057;-68
2023/12/05 03:37:48;;;;;;;29.50;22.30;;;;;;;0.42;100.00;95053.78;5027024;28;20564;-68
2023/12/05 03:40:13;;;;;;;34.63;25.05;;;;;;;0.34;100.00;95053.44;5027865;28;20039;-68
2023/12/05 03:42:39;;;;;;;29.25;23.38;;;;;;;0.41;100.00;95055.50;5029034;28;20028;-68
2023/12/05 03:45:05;;;;;;;34.58;25.10;;;;;;;0.52;100.00;95060.03;5029763;28;20029;-68
2023/12/05 03:47:30;;;;;;;27.42;22.00;;;;;;;0.60;100.00;95061.31;5029441;28;20672;-68
2023/12/05 03:49:56;;;;;;;30.23;22.42;;;;;;;0.59;100.00;95057.88;5020051;28;20034;-68
2023/12/05 03:52:21;;;;;;;34.25;25.35;;;;;;;0.56;100.00;95060.69;5017536;28;20061;-68
2023/12/05 03:54:47;;;;;;;38.38;29.65;;;;;;;0.50;100.00;95050.72;5019132;28;20036;-68
2023/12/05 03:57:12;;;;;;;31.25;24.52;;;;;;;0.47;100.00;95062.09;5019705;28;20026;-68
2023/12/05 03:59:37;;;;;;;27.30;21.98;;;;;;;0.42;100.00;95066.72;5032002;28;20109;-68
2023/12/05 04:02:03;;;;;;;27.17;21.67;;;;;;;0.37;100.00;95059.22;5026844;28;20030;-68
2023/12/05 04:04:28;;;;;;;24.38;20.95;;;;;;;0.34;100.00;95051.66;5019875;28;20052;-68
2023/12/05 04:06:54;;;;;;;31.10;19.95;;;;;;;0.36;100.00;95048.97;5029071;28;20076;-68
2023/12/05 04:09:19;;;;;;;31.23;21.25;;;;;;;0.36;100.00;95048.97;5016479;28;20052;-68
2023/12/05 04:11:44;;;;;;;25.77;19.15;;;;;;;0.36;100.00;95039.44;5015415;28;20022;-68
2023/12/05 04:14:10;;;;;;;31.15;20.15;;;;;;;0.37;100.00;95035.09;5028297;28;20103;-68
2023/12/05 04:16:35;;;;;;;34.55;21.23;;;;;;;0.40;100.00;95032.31;5016107;28;20603;-67
2023/12/05 04:19:00;;;;;;;28.23;21.88;;;;;;;0.35;100.00;95031.78;5029202;28;20037;-68
2023/12/05 04:21:26;;;;;;;22.13;18.08;;;;;;;0.38;100.00;95032.41;5022074;28;20486;-68
2023/12/05 04:23:52;;;;;;;26.20;20.80;;;;;;;0.40;100.00;95034.91;5035031;28;20029;-68
2023/12/05 04:26:18;;;;;;;26.15;21.73;;;;;;;0.40;100.00;95030.53;5023377;28;20025;-69
2023/12/05 04:28:44;;;;;;;33.58;25.92;;;;;;;0.40;100.00;95047.84;5034984;28;20044;-68
2023/12/05 04:31:10;;;;;;;20.52;17.98;;;;;;;0.40;100.00;95053.84;5035099;28;20052;-68
2023/12/05 04:33:35;;;;;;;25.50;20.55;;;;;;;0.45;100.00;95055.34;5033861;28;20026;-68
2023/12/05 04:36:00;;;;;;;21.70;18.20;;;;;;;0.48;100.00;95057.75;5022836;28;20029;-68
2023/12/05 04:38:26;;;;;;;23.70;17.85;;;;;;;0.46;100.00;95059.59;5033619;28;20115;-68
2023/12/05 04:40:51;;;;;;;24.23;21.58;;;;;;;0.42;100.00;95064.13;5030412;28;20038;-68
2023/12/05 04:43:17;;;;;;;21.17;18.65;;;;;;;0.40;100.00;95053.84;5034745;28;20029;-68
2023/12/05 04:45:43;;;;;;;37.88;23.38;;;;;;;0.45;100.00;95052.75;5021556;28;20045;-68
2023/12/05 04:48:08;;;;;;;18.90;15.45;;;;;;;0.48;100.00;95039.63;5026639;28;20033;-67
2023/12/05 04:50:33;;;;;;;8.65;7.43;;;;;;;0.66;100.00;95040.19;5030662;28;20041;-69
2023/12/05 04:52:59;;;;;;;23.30;20.90;;;;;;;0.66;100.00;95029.84;5023594;28;20065;-68
2023/12/05 04:55:24;;;;;;;14.07;12.70;;;;;;;0.68;100.00;95028.81;5034146;28;20037;-68
2023/12/05 04:57:50;;;;;;;10.50;8.82;;;;;;;0.74;100.00;95027.59;5034943;28;20029;-68
2023/12/05 05:00:16;;;;;;;12.60;9.88;;;;;;;0.85;100.00;95017.38;5022084;28;20104;-68
2023/12/05 05:02:41;;;;;;;11.18;9.77;;;;;;;0.82;100.00;95014.97;5016742;28;20056;-68
2023/12/05 05:05:06;;;;;;;7.85;7.05;;;;;;;0.85;100.00;95012.19;5031209;28;20498;-68
2023/12/05 05:07:33;;;;;;;8.23;7.15;;;;;;;0.82;100.00;95019.31;5030777;28;20025;-68
2023/12/05 05:09:58;;;;;;;11.00;9.90;;;;;;;0.78;100.00;95016.13;5028438;28;20038;-68
2023/12/05 05:12:24;;;;;;;9.13;8.23;;;;;;;0.78;100.00;95015.28;5028123;28;20033;-68
2023/12/05 05:14:49;;;;;;;9.05;8.18;;;;;;;0.87;100.00;95006.88;5028875;28;20021;-68
2023/12/05 05:17:14;;;;;;;9.02;7.90;;;;;;;0.91;100.00;95013.56;5024608;28;20029;-68
2023/12/05 05:19:40;;;;;;;11.25;9.75;;;;;;;1.01;100.00;95016.38;5032584;28;20087;-70
2023/12/05 05:22:05;;;;;;;10.70;9.65;;;;;;;0.94;100.00;95018.53;5025144;28;20041;-69
2023/12/05 05:24:32;;;;;;;8.68;7.80;;;;;;;0.89;100.00;95019.75;5027753;28;20454;-69
2023/12/05 05:26:58;;;;;;;12.60;8.98;;;;;;;0.95;100.00;95024.53;5044560;28;20029;-68
2023/12/05 05:29:23;;;;;;;12.07;9.82;;;;;;;0.89;100.00;95022.34;5017036;28;20486;-68
2023/12/05 05:31:49;;;;;;;11.50;10.23;;;;;;;0.99;100.00;95023.41;5017150;28;20022;-68
2023/12/05 05:34:14;;;;;;;14.07;11.65;;;;;;;0.89;100.00;95009.41;5050063;28;20030;-68
2023/12/05 05:36:39;;;;;;;15.25;13.25;;;;;;;0.82;100.00;95017.56;5026497;28;20020;-68
2023/12/05 05:39:05;;;;;;;10.90;9.73;;;;;;;0.80;100.00;95006.47;5018690;28;20022;-69
2023/12/05 05:41:30;;;;;;;9.75;8.75;;;;;;;0.79;100.00;94999.63;5024286;28;20041;-69
2023/12/05 05:43:55;;;;;;;11.35;10.15;;;;;;;0.93;100.00;95013.44;5026836;28;20030;-69
2023/12/05 05:46:21;;;;;;;11.82;10.73;;;;;;;0.85;100.00;95007.00;5016019;28;20030;-69
2023/12/05 05:48:46;;;;;;;12.45;10.73;;;;;;;0.71;100.00;95007.06;5014791;28;20066;-69
2023/12/05 05:51:11;;;;;;;11.77;10.60;;;;;;;0.59;100.00;95013.84;5024024;28;20017;-69
2023/12/05 05:53:37;;;;;;;13.77;10.90;;;;;;;0.50;100.00;95020.44;5024906;28;20058;-70
2023/12/05 05:56:02;;;;;;;22.77;20.38;;;;;;;0.45;100.00;95016.50;5033119;28;20112;-71
2023/12/05 05:58:28;;;;;;;20.20;18.10;;;;;;;0.42;100.00;95012.34;5030710;28;20025;-70
2023/12/05 06:00:54;;;;;;;17.33;14.65;;;;;;;0.40;100.00;95024.56;5024599;28;20029;-70
2023/12/05 06:03:19;;;;;;;16.35;14.63;;;;;;;0.41;100.00;95028.81;5019764;28;20025;-71
2023/12/05 06:05:45;;;;;;;15.60;13.35;;;;;;;0.40;100.00;95040.09;5034084;28;20092;-70
2023/12/05 06:08:10;;;;;;;18.58;13.20;;;;;;;0.41;100.00;95039.97;5019147;28;20509;-68
2023/12/05 06:10:36;;;;;;;14.32;12.63;;;;;;;0.52;100.00;95044.50;5013754;28;20017;-68
2023/12/05 06:13:01;;;;;;;16.85;13.75;;;;;;;0.58;100.00;95040.69;5019731;28;20108;-68
2023/12/05 06:15:27;;;;;;;16.58;13.43;;;;;;;0.58;100.00;95061.41;5022870;28;20029;-68
2023/12/05 06:17:52;;;;;;;16.45;13.30;;;;;;;0.54;100.00;95060.75;5031092;28;20411;-68
2023/12/05 06:20:18;;;;;;;13.77;12.38;;;;;;;0.51;100.00;95073.91;5024064;28;20526;-68
2023/12/05 06:22:43;;;;;;;13.77;12.27;;;;;;;0.54;100.00;95084.06;5027374;28;20057;-68
2023/12/05 06:25:08;;;;;;;15.65;12.90;;;;;;;0.66;100.00;95110.16;5023083;28;20018;-68
2023/12/05 06:27:34;;;;;;;2.10;2.00;;;;;;;1.44;100.00;95103.50;5028290;28;20018;-68
2023/12/05 06:29:59;;;;;;;3.00;1.67;;;;;;;1.51;100.00;95109.94;5020301;28;20025;-67
2023/12/05 06:32:24;;;;;;;1.55;1.45;;;;;;;1.54;100.00;95134.88;5015726;28;20033;-68
2023/12/05 06:34:50;;;;;;;1.35;1.35;;;;;;;1.65;100.00;95163.53;5014510;28;20022;-68
2023/12/05 06:37:15;;;;;;;1.50;1.50;;;;;;;1.66;100.00;95167.81;5027991;28;20053;-68
2023/12/05 06:39:40;;;;;;;3.70;3.42;;;;;;;1.68;100.00;95178.94;5022512;28;20025;-68
2023/12/05 06:42:06;;;;;;;8.20;6.00;;;;;;;1.31;100.00;95202.03;5025409;28;20064;-68
2023/12/05 06:44:31;;;;;;;6.20;5.10;;;;;;;1.22;100.00;95215.59;5032625;28;20018;-68
2023/12/05 06:46:57;;;;;;;3.13;2.92;;;;;;;0.99;100.00;95223.00;5030431;28;20028;-67
2023/12/05 06:49:22;;;;;;;3.72;3.53;;;;;;;0.91;100.00;95226.09;5028519;28;20057;-69
2023/12/05 06:51:55;;;;;;;4.50;3.70;;;;;;;0.94;100.00;95235.44;5020914;28;20052;-68
2023/12/05 06:54:21;;;;;;;2.97;2.65;;;;;;;0.80;100.00;95249.25;5037594;28;20363;-68
2023/12/05 06:56:46;;;;;;;9.88;7.10;;;;;;;0.77;100.00;95259.78;5021339;28;20022;-67
2023/12/05 06:59:12;;;;;;;4.80;4.22;;;;;;;0.85;100.00;95283.47;5032236;28;20036;-68
2023/12/05 07:01:37;;;;;;;7.75;6.90;;;;;;;0.82;100.00;95288.84;5021238;28;20118;-69
2023/12/05 07:04:03;;;;;;;3.83;3.53;;;;;;;0.72;100.00;95288.56;5029012;28;20018;-70
2023/12/05 07:06:28;;;;;;;4.80;3.05;;;;;;;0.69;100.00;95296.53;5019363;28;20030;-68
2023/12/05 07:08:53;;;;;;;4.10;3.70;;;;;;;0.66;100.00;95302.75;5018661;28;20034;-68
2023/12/05 07:11:19;;;;;;;3.75;3.55;;;;;;;0.64;100.00;95314.13;5024822;28;20026;-68
2023/12/05 07:13:45;;;;;;;2.88;2.53;;;;;;;0.67;100.00;95316.53;5031212;28;20042;-68
2023/12/05 07:16:11;;;;;;;4.05;3.75;;;;;;;0.62;100.00;95319.38;5035273;28;20025;-68
2023/12/05 07:18:37;;;;;;;4.32;3.92;;;;;;;0.55;100.00;95321.50;5040627;28;20052;-68
2023/12/05 07:21:03;;;;;;;5.85;4.95;;;;;;;0.55;100.00;95323.25;5031204;28;20807;-68
2023/12/05 07:23:29;;;;;;;5.78;5.20;;;;;;;0.56;100.00;95327.50;5026277;28;20026;-68
2023/12/05 07:25:56;;;;;;;18.10;16.60;;;;;;;0.55;100.00;95342.25;5030104;28;20148;-67
2023/12/05 07:28:22;;;;;;;8.60;7.80;;;;;;;0.57;100.00;95345.56;5025880;28;20029;-69
2023/12/05 07:30:47;;;;;;;16.33;9.35;;;;;;;0.55;100.00;95344.84;5032527;28;20101;-69
2023/12/05 07:33:13;;;;;;;12.10;8.05;;;;;;;0.57;100.00;95358.53;5026010;28;20450;-67
2023/12/05 07:35:38;;;;;;;11.55;9.40;;;;;;;0.53;100.00;95362.19;5024478;28;20555;-68
2023/12/05 07:38:03;;;;;;;6.35;5.80;;;;;;;0.49;100.00;95354.72;5009446;28;20069;-67
2023/12/05 07:40:29;;;;;;;6.25;5.65;;;;;;;0.47;100.00;95361.75;5011034;28;20501;-69
2023/12/05 07:42:54;;;;;;;6.07;5.57;;;;;;;0.46;100.00;95371.25;5026575;28;20029;-68
2023/12/05 07:45:19;;;;;;;14.07;12.63;;;;;;;0.47;100.00;95372.91;5015410;28;20390;-69
2023/12/05 07:47:48;;;;;;;18.67;16.90;;;;;;;0.49;100.00;95368.47;5031625;28;20041;-71
2023/12/05 07:50:14;;;;;;;9.98;9.07;;;;;;;0.53;100.00;95375.16;5015308;28;20148;-69
2023/12/05 07:52:39;;;;;;;8.45;7.63;;;;;;;0.59;100.00;95370.56;5034209;28;20053;-69
2023/12/05 07:55:05;;;;;;;12.15;10.77;;;;;;;0.60;100.00;95372.22;5022069;28;20021;-68
2023/12/05 07:57:31;;;;;;;16.08;14.05;;;;;;;0.54;100.00;95374.22;5031712;28;20091;-69
2023/12/05 07:59:56;;;;;;;11.50;9.85;;;;;;;0.53;100.00;95377.72;5016081;28;20707;-69
2023/12/05 08:02:22;;;;;;;10.77;9.68;;;;;;;0.51;100.00;95379.59;5026848;28;20033;-68
2023/12/05 08:04:47;;;;;;;11.25;10.15;;;;;;;0.51;100.00;95373.59;5021668;28;20082;-68
2023/12/05 08:07:13;;;;;;;42.95;30.20;;;;;;;0.49;100.00;95375.44;5019475;28;20075;-68
2023/12/05 08:09:39;;;;;;;19.45;13.90;;;;;;;0.48;100.00;95376.34;5029892;28;20045;-68
2023/12/05 08:12:05;;;;;;;14.43;11.52;;;;;;;0.50;100.00;95390.88;5025477;28;20087;-68
2023/12/05 08:14:30;;;;;;;16.65;13.45;;;;;;;0.51;100.00;95389.94;5029604;28;20018;-68
2023/12/05 08:16:55;;;;;;;18.40;13.07;;;;;;;0.49;100.00;95394.38;5019291;28;20021;-69
2023/12/05 08:19:21;;;;;;;21.33;14.75;;;;;;;0.50;100.00;95388.28;5017579;28;20020;-68
2023/12/05 08:21:46;;;;;;;23.67;17.25;;;;;;;0.51;100.00;95384.75;5028119;28;20077;-68
2023/12/05 08:24:12;;;;;;;22.17;15.82;;;;;;;0.51;100.00;95379.59;5028295;28;20018;-69
2023/12/05 08:26:37;;;;;;;23.45;14.85;;;;;;;0.48;100.00;95384.94;5031294;28;20052;-69
2023/12/05 08:29:02;;;;;;;19.70;15.43;;;;;;;0.51;100.00;95373.59;5030886;28;20494;-69
2023/12/05 08:31:28;;;;;;;23.65;17.00;;;;;;;0.51;100.00;95374.41;5031238;28;20505;-69
2023/12/05 08:33:53;;;;;;;20.48;15.65;;;;;;;0.50;100.00;95371.91;5024764;28;20041;-68
2023/12/05 08:36:19;;;;;;;22.98;15.90;;;;;;;0.51;100.00;95377.00;5015331;28;20053;-68
2023/12/05 08:38:44;;;;;;;34.70;23.55;;;;;;;0.53;100.00;95371.72;5025585;28;20049;-68
2023/12/05 08:41:17;;;;;;;30.35;19.92;;;;;;;0.55;100.00;95377.66;5023493;28;20025;-68
2023/12/05 08:43:42;;;;;;;14.50;13.00;;;;;;;0.57;100.00;95379.25;5033614;28;20505;-70
2023/12/05 08:46:07;;;;;;;13.05;11.32;;;;;;;0.61;100.00;95379.06;5026872;28;20036;-70
2023/12/05 08:48:33;;;;;;;11.25;10.07;;;;;;;0.68;100.00;95375.19;5014432;28;20032;-70
2023/12/05 08:50:58;;;;;;;12.93;11.48;;;;;;;0.70;100.00;95375.94;5022463;28;20029;-69
2023/12/05 08:53:23;;;;;;;17.40;14.45;;;;;;;0.68;100.00;95389.00;5018660;28;20057;-68
2023/12/05 08:55:49;;;;;;;18.40;15.50;;;;;;;0.68;100.00;95386.41;5026452;28;20438;-68
2023/12/05 08:58:14;;;;;;;19.17;15.95;;;;;;;0.66;100.00;95380.47;5021185;28;20099;-67
2023/12/05 09:00:40;;;;;;;21.33;16.27;;;;;;;0.69;100.00;95395.00;5014809;28;20076;-68
2023/12/05 09:03:05;;;;;;;24.60;20.42;;;;;;;0.70;100.00;95394.91;5013966;28;20033;-68
2023/12/05 09:05:30;;;;;;;37.28;25.70;;;;;;;0.72;100.00;95392.22;5013822;28;20071;-69
2023/12/05 09:07:56;;;;;;;29.73;25.60;;;;;;;0.79;100.00;95397.91;5025329;28;20025;-70
2023/12/05 09:10:22;;;;;;;34.15;26.55;;;;;;;0.84;100.00;95401.03;5014148;28;20038;-70
2023/12/05 09:12:47;;;;;;;35.58;28.48;;;;;;;0.84;100.00;95396.72;5025868;28;20036;-70
2023/12/05 09:15:12;;;;;;;33.10;25.55;;;;;;;0.87;100.00;95394.84;5024132;28;20025;-70
2023/12/05 09:17:38;;;;;;;30.10;24.90;;;;;;;0.93;100.00;95399.69;5028641;28;20147;-70
2023/12/05 09:20:04;;;;;;;29.15;23.88;;;;;;;0.96;100.00;95394.31;5031813;28;20022;-68
2023/12/05 09:22:29;;;;;;;29.52;24.00;;;;;;;0.97;100.00;95396.81;5028946;28;20461;-68
2023/12/05 09:24:55;;;;;;;28.33;25.27;;;;;;;1.09;100.00;95387.47;5014013;28;20657;-68
2023/12/05 09:27:20;;;;;;;27.92;24.30;;;;;;;1.20;100.00;95378.22;5016749;28;20383;-68
2023/12/05 09:29:46;;;;;;;27.20;23.95;;;;;;;1.50;100.00;95378.13;5032503;28;20099;-68
2023/12/05 09:32:11;;;;;;;27.88;24.83;;;;;;;1.86;100.00;95373.31;5017995;28;20490;-68
2023/12/05 09:34:36;;;;;;;39.55;34.10;;;;;;;1.93;100.00;95384.16;5033465;28;20064;-68
2023/12/05 09:37:02;;;;;;;31.67;28.25;;;;;;;1.84;100.00;95388.16;5019196;28;20028;-68
2023/12/05 09:39:29;;;;;;;31.00;21.42;;;;;;;1.81;100.00;95386.63;5019680;28;20379;-68
2023/12/05 09:41:57;;;;;;;20.20;18.10;;;;;;;1.83;100.00;95386.50;5020051;28;20113;-68
2023/12/05 09:44:23;;;;;;;18.15;15.30;;;;;;;1.79;100.00;95382.44;5013408;28;20145;-68
2023/12/05 09:46:52;;;;;;;21.17;16.77;;;;;;;1.71;100.00;95375.97;5013958;28;20018;-68
2023/12/05 09:49:18;;;;;;;16.10;12.82;;;;;;;1.81;100.00;95375.38;5020193;28;20030;-68
2023/12/05 09:51:45;;;;;;;14.73;13.15;;;;;;;2.08;100.00;95379.75;5028318;28;20046;-68
2023/12/05 09:54:12;;;;;;;12.23;11.05;;;;;;;2.40;100.00;95392.47;5013256;28;20414;-69
2023/12/05 09:56:39;;;;;;;17.33;13.52;;;;;;;2.75;100.00;95384.13;5022458;28;20025;-68
2023/12/05 09:59:04;;;;;;;7.30;6.57;;;;;;;3.03;100.00;95391.84;5018651;28;20054;-69
2023/12/05 10:01:34;;;;;;;10.95;8.23;;;;;;;3.33;100.00;95399.38;5014947;28;20050;-68
2023/12/05 10:04:01;;;;;;;15.68;12.23;;;;;;;3.39;100.00;95398.13;5017916;28;20025;-69
2023/12/05 10:06:29;;;;;;;9.68;7.88;;;;;;;3.13;100.00;95392.91;5033127;28;20151;-68
2023/12/05 10:08:56;;;;;;;8.27;7.07;;;;;;;3.01;100.00;95391.97;5023042;28;20064;-68
2023/12/05 10:11:24;;;;;;;6.22;5.63;;;;;;;2.97;100.00;95406.09;5027147;28;20021;-68
2023/12/05 10:13:49;;;;;;;9.45;7.45;;;;;;;3.08;100.00;95411.44;5033228;28;20043;-68
2023/12/05 10:16:16;;;;;;;10.15;8.35;;;;;;;3.24;100.00;95413.81;5018912;28;20017;-68
2023/12/05 10:18:44;;;;;;;14.77;11.05;;;;;;;3.20;100.00;95420.19;5028540;28;20040;-68
2023/12/05 10:21:09;;;;;;;12.20;9.50;;;;;;;2.98;100.00;95425.97;5023456;28;20515;-68
2023/12/05 10:23:35;;;;;;;21.58;19.27;;;;;;;2.96;100.00;95426.09;5025867;28;20084;-68
2023/12/05 10:26:00;;;;;;;13.52;9.18;;;;;;;2.81;100.00;95433.13;5021052;28;20025;-68
2023/12/05 10:28:25;;;;;;;11.27;8.90;;;;;;;2.73;100.00;95440.59;5034325;28;20025;-68
2023/12/05 10:30:51;;;;;;;10.13;7.93;;;;;;;2.63;100.00;95435.16;5030800;28;20098;-68
2023/12/05 10:33:18;;;;;;;10.70;9.50;;;;;;;2.64;100.00;95441.19;5028121;28;20025;-68
2023/12/05 10:35:45;;;;;;;11.43;9.07;;;;;;;2.70;100.00;95430.38;5022849;28;20025;-68
2023/12/05 10:38:18;;;;;;;12.52;8.07;;;;;;;3.01;100.00;95436.19;5035591;28;20022;-68
2023/12/05 10:40:57;;;;;;;11.80;9.30;;;;;;;3.41;100.00;95440.47;5030996;28;20506;-68
2023/12/05 10:43:24;;;;;;;9.75;8.75;;;;;;;3.43;100.00;95434.25;5036156;28;20032;-68
2023/12/05 10:45:50;;;;;;;14.55;11.73;;;;;;;3.42;100.00;95440.38;5035853;28;20024;-69
2023/12/05 10:48:16;;;;;;;6.03;5.43;;;;;;;3.25;100.00;95449.31;5023662;28;20028;-68
2023/12/05 10:50:44;;;;;;;9.35;8.45;;;;;;;3.32;100.00;95451.53;5029938;28;20029;-68
2023/12/05 10:53:10;;;;;;;9.32;7.78;;;;;;;3.23;100.00;95459.00;5015768;28;20042;-68
2023/12/05 10:55:35;;;;;;;9.68;7.00;;;;;;;3.23;100.00;95453.78;5018900;28;20022;-68
2023/12/05 10:58:02;;;;;;;8.00;7.20;;;;;;;3.26;100.00;95463.16;5016221;28;20033;-68
2023/12/05 11:00:28;;;;;;;6.88;5.75;;;;;;;3.22;100.00;95454.72;5034785;28;20017;-68
2023/12/05 11:02:55;;;;;;;6.80;4.97;;;;;;;3.22;100.00;95451.31;5036392;28;20025;-67
2023/12/05 11:05:21;;;;;;;7.00;5.45;;;;;;;3.16;100.00;95442.13;5016575;28;20018;-68
2023/12/05 11:07:47;;;;;;;9.93;6.07;;;;;;;3.10;100.00;95439.97;5016304;28;20076;-70
2023/12/05 11:10:12;;;;;;;7.88;6.28;;;;;;;3.04;100.00;95441.19;5015943;28;20034;-70
2023/12/05 11:12:39;;;;;;;8.43;6.32;;;;;;;2.97;100.00;95439.91;5017945;28;20100;-68
2023/12/05 11:15:07;;;;;;;9.95;6.75;;;;;;;2.90;100.00;95442.09;5027446;28;20029;-68
2023/12/05 11:17:39;;;;;;;10.55;6.57;;;;;;;2.89;100.00;95439.59;5017659;28;20026;-68